sensor_id;sensor_type;location;lat;lon;timestamp;pressure;altitude;pressure_sealevel;temperature
62930;BMP280;49036;42.782;23.108;2022-11-03T00:02:05;92053.28;;;13.11
62930;BMP280;49036;42.782;23.108;2022-11-03T00:04:30;91933.41;;;13.07
62930;BMP280;49036;42.782;23.108;2022-11-03T00:06:56;91870.25;;;12.86
62930;BMP280;49036;42.782;23.108;2022-11-03T00:09:23;91746.88;;;12.77
62930;BMP280;49036;42.782;23.108;2022-11-03T00:11:51;91839.06;;;12.63
62930;BMP280;49036;42.782;23.108;2022-11-03T00:14:16;91743.69;;;12.61
62930;BMP280;49036;42.782;23.108;2022-11-03T00:16:42;91685.19;;;12.57
62930;BMP280;49036;42.782;23.108;2022-11-03T00:19:09;91753.25;;;12.54
62930;BMP280;49036;42.782;23.108;2022-11-03T00:21:36;91923.59;;;12.52
62930;BMP280;49036;42.782;23.108;2022-11-03T00:24:02;91713.50;;;12.49
62930;BMP280;49036;42.782;23.108;2022-11-03T00:26:29;91724.69;;;12.51
62930;BMP280;49036;42.782;23.108;2022-11-03T00:28:57;91792.19;;;12.54
62930;BMP280;49036;42.782;23.108;2022-11-03T00:31:27;91792.75;;;12.48
62930;BMP280;49036;42.782;23.108;2022-11-03T00:33:53;91733.47;;;12.42
62930;BMP280;49036;42.782;23.108;2022-11-03T00:36:21;91693.06;;;12.39
62930;BMP280;49036;42.782;23.108;2022-11-03T00:38:47;91761.91;;;12.38
62930;BMP280;49036;42.782;23.108;2022-11-03T00:41:13;91955.81;;;12.36
62930;BMP280;49036;42.782;23.108;2022-11-03T00:43:39;92031.66;;;12.38
62930;BMP280;49036;42.782;23.108;2022-11-03T00:46:06;92022.53;;;12.36
62930;BMP280;49036;42.782;23.108;2022-11-03T00:48:33;91815.13;;;12.26
62930;BMP280;49036;42.782;23.108;2022-11-03T00:51:19;91691.88;;;12.18
62930;BMP280;49036;42.782;23.108;2022-11-03T00:53:56;92005.13;;;12.11
62930;BMP280;49036;42.782;23.108;2022-11-03T00:58:48;92098.78;;;12.07
62930;BMP280;49036;42.782;23.108;2022-11-03T01:01:17;92043.72;;;12.01
62930;BMP280;49036;42.782;23.108;2022-11-03T01:03:45;92160.41;;;11.99
62930;BMP280;49036;42.782;23.108;2022-11-03T01:06:35;91989.09;;;11.88
62930;BMP280;49036;42.782;23.108;2022-11-03T01:09:17;92023.41;;;11.96
62930;BMP280;49036;42.782;23.108;2022-11-03T01:14:18;92060.84;;;11.93
62930;BMP280;49036;42.782;23.108;2022-11-03T01:16:43;92085.72;;;11.89
62930;BMP280;49036;42.782;23.108;2022-11-03T01:19:09;92374.69;;;11.87
62930;BMP280;49036;42.782;23.108;2022-11-03T01:21:34;92521.44;;;11.91
62930;BMP280;49036;42.782;23.108;2022-11-03T01:24:00;92462.19;;;11.86
62930;BMP280;49036;42.782;23.108;2022-11-03T01:26:26;92392.38;;;11.78
62930;BMP280;49036;42.782;23.108;2022-11-03T01:28:52;92419.88;;;11.70
62930;BMP280;49036;42.782;23.108;2022-11-03T01:31:19;92403.66;;;11.64
62930;BMP280;49036;42.782;23.108;2022-11-03T01:33:46;92384.06;;;11.60
62930;BMP280;49036;42.782;23.108;2022-11-03T01:36:14;92473.06;;;11.62
62930;BMP280;49036;42.782;23.108;2022-11-03T01:38:40;92494.00;;;11.65
62930;BMP280;49036;42.782;23.108;2022-11-03T01:41:08;92318.25;;;11.65
62930;BMP280;49036;42.782;23.108;2022-11-03T01:43:37;92278.09;;;11.68
62930;BMP280;49036;42.782;23.108;2022-11-03T01:46:19;92210.41;;;11.79
62930;BMP280;49036;42.782;23.108;2022-11-03T01:48:51;92274.19;;;11.75
62930;BMP280;49036;42.782;23.108;2022-11-03T01:51:21;92305.97;;;11.70
62930;BMP280;49036;42.782;23.108;2022-11-03T01:53:49;92223.25;;;11.69
62930;BMP280;49036;42.782;23.108;2022-11-03T01:56:18;92277.84;;;11.80
62930;BMP280;49036;42.782;23.108;2022-11-03T01:58:45;92253.81;;;11.88
62930;BMP280;49036;42.782;23.108;2022-11-03T02:01:11;92453.94;;;11.88
62930;BMP280;49036;42.782;23.108;2022-11-03T02:03:39;92326.41;;;11.79
62930;BMP280;49036;42.782;23.108;2022-11-03T02:06:05;92396.53;;;11.77
62930;BMP280;49036;42.782;23.108;2022-11-03T02:08:51;92322.13;;;11.76
62930;BMP280;49036;42.782;23.108;2022-11-03T02:11:18;92308.03;;;11.70
62930;BMP280;49036;42.782;23.108;2022-11-03T02:14:02;92236.97;;;11.64
62930;BMP280;49036;42.782;23.108;2022-11-03T02:16:29;92304.84;;;11.59
62930;BMP280;49036;42.782;23.108;2022-11-03T02:18:56;92215.41;;;11.63
62930;BMP280;49036;42.782;23.108;2022-11-03T02:21:50;92295.31;;;11.64
62930;BMP280;49036;42.782;23.108;2022-11-03T02:24:37;92278.00;;;11.66
62930;BMP280;49036;42.782;23.108;2022-11-03T02:27:06;92318.13;;;11.61
62930;BMP280;49036;42.782;23.108;2022-11-03T02:29:32;92174.16;;;11.55
62930;BMP280;49036;42.782;23.108;2022-11-03T02:32:04;92276.22;;;11.55
62930;BMP280;49036;42.782;23.108;2022-11-03T02:35:26;92202.56;;;11.54
62930;BMP280;49036;42.782;23.108;2022-11-03T02:37:28;92383.25;;;11.58
62930;BMP280;49036;42.782;23.108;2022-11-03T02:40:07;92273.53;;;11.57
62930;BMP280;49036;42.782;23.108;2022-11-03T02:42:35;92370.06;;;11.58
62930;BMP280;49036;42.782;23.108;2022-11-03T02:45:05;92353.50;;;11.60
62930;BMP280;49036;42.782;23.108;2022-11-03T02:47:32;92521.53;;;11.59
62930;BMP280;49036;42.782;23.108;2022-11-03T02:49:58;92344.94;;;11.54
62930;BMP280;49036;42.782;23.108;2022-11-03T02:58:17;92259.50;;;11.35
62930;BMP280;49036;42.782;23.108;2022-11-03T03:00:52;92271.16;;;11.31
62930;BMP280;49036;42.782;23.108;2022-11-03T03:03:23;91725.97;;;11.21
62930;BMP280;49036;42.782;23.108;2022-11-03T03:05:51;92193.03;;;11.21
62930;BMP280;49036;42.782;23.108;2022-11-03T03:08:19;92525.63;;;11.25
62930;BMP280;49036;42.782;23.108;2022-11-03T03:10:45;92583.50;;;11.15
62930;BMP280;49036;42.782;23.108;2022-11-03T03:13:16;92391.94;;;11.15
62930;BMP280;49036;42.782;23.108;2022-11-03T03:21:10;91900.09;;;10.98
62930;BMP280;49036;42.782;23.108;2022-11-03T03:23:41;92226.03;;;10.95
62930;BMP280;49036;42.782;23.108;2022-11-03T03:26:19;92278.97;;;11.01
62930;BMP280;49036;42.782;23.108;2022-11-03T03:28:53;92277.88;;;11.09
62930;BMP280;49036;42.782;23.108;2022-11-03T03:31:21;92123.81;;;11.08
62930;BMP280;49036;42.782;23.108;2022-11-03T03:33:48;91985.06;;;11.08
62930;BMP280;49036;42.782;23.108;2022-11-03T03:36:17;92333.09;;;11.00
62930;BMP280;49036;42.782;23.108;2022-11-03T03:38:48;92467.28;;;11.07
62930;BMP280;49036;42.782;23.108;2022-11-03T03:41:16;92276.22;;;11.01
62930;BMP280;49036;42.782;23.108;2022-11-03T03:43:57;92259.44;;;10.97
62930;BMP280;49036;42.782;23.108;2022-11-03T03:46:28;92320.38;;;10.95
62930;BMP280;49036;42.782;23.108;2022-11-03T03:48:55;92541.31;;;10.87
62930;BMP280;49036;42.782;23.108;2022-11-03T03:51:21;92319.72;;;10.79
62930;BMP280;49036;42.782;23.108;2022-11-03T03:53:51;92439.47;;;10.74
62930;BMP280;49036;42.782;23.108;2022-11-03T03:56:25;92355.09;;;10.63
62930;BMP280;49036;42.782;23.108;2022-11-03T03:58:52;92348.50;;;10.54
62930;BMP280;49036;42.782;23.108;2022-11-03T04:01:17;92360.69;;;10.47
62930;BMP280;49036;42.782;23.108;2022-11-03T04:03:42;92222.88;;;10.34
62930;BMP280;49036;42.782;23.108;2022-11-03T04:06:08;92143.66;;;10.29
62930;BMP280;49036;42.782;23.108;2022-11-03T04:08:33;92075.16;;;10.14
62930;BMP280;49036;42.782;23.108;2022-11-03T04:10:58;92035.44;;;9.91
62930;BMP280;49036;42.782;23.108;2022-11-03T04:13:43;91922.19;;;9.64
62930;BMP280;49036;42.782;23.108;2022-11-03T04:16:26;91885.97;;;9.75
62930;BMP280;49036;42.782;23.108;2022-11-03T04:19:11;92003.00;;;9.76
62930;BMP280;49036;42.782;23.108;2022-11-03T04:21:55;91896.81;;;9.52
62930;BMP280;49036;42.782;23.108;2022-11-03T04:24:39;92039.09;;;9.44
62930;BMP280;49036;42.782;23.108;2022-11-03T04:27:19;92070.97;;;9.45
62930;BMP280;49036;42.782;23.108;2022-11-03T04:29:48;91978.44;;;9.51
62930;BMP280;49036;42.782;23.108;2022-11-03T04:32:15;91890.00;;;9.37
62930;BMP280;49036;42.782;23.108;2022-11-03T04:34:41;91918.53;;;9.24
62930;BMP280;49036;42.782;23.108;2022-11-03T04:37:10;91891.09;;;9.12
62930;BMP280;49036;42.782;23.108;2022-11-03T04:39:36;92084.09;;;9.13
62930;BMP280;49036;42.782;23.108;2022-11-03T04:42:09;92036.34;;;9.13
62930;BMP280;49036;42.782;23.108;2022-11-03T04:44:36;91996.34;;;9.16
62930;BMP280;49036;42.782;23.108;2022-11-03T04:47:10;91961.72;;;9.15
62930;BMP280;49036;42.782;23.108;2022-11-03T04:49:36;91992.28;;;9.17
62930;BMP280;49036;42.782;23.108;2022-11-03T04:52:01;92061.31;;;9.15
62930;BMP280;49036;42.782;23.108;2022-11-03T04:54:27;91991.38;;;8.97
62930;BMP280;49036;42.782;23.108;2022-11-03T04:56:53;91880.69;;;8.95
62930;BMP280;49036;42.782;23.108;2022-11-03T04:59:18;91819.19;;;9.14
62930;BMP280;49036;42.782;23.108;2022-11-03T05:01:44;92404.31;;;9.13
62930;BMP280;49036;42.782;23.108;2022-11-03T05:04:15;92256.41;;;9.00
62930;BMP280;49036;42.782;23.108;2022-11-03T05:06:46;92245.19;;;9.12
62930;BMP280;49036;42.782;23.108;2022-11-03T05:09:19;92348.63;;;9.34
62930;BMP280;49036;42.782;23.108;2022-11-03T05:11:47;92485.88;;;9.53
62930;BMP280;49036;42.782;23.108;2022-11-03T05:14:16;92757.63;;;9.48
62930;BMP280;49036;42.782;23.108;2022-11-03T05:16:42;92661.41;;;9.48
62930;BMP280;49036;42.782;23.108;2022-11-03T05:19:12;92745.91;;;9.74
62930;BMP280;49036;42.782;23.108;2022-11-03T05:21:38;92784.41;;;9.82
62930;BMP280;49036;42.782;23.108;2022-11-03T05:24:10;92745.31;;;9.90
62930;BMP280;49036;42.782;23.108;2022-11-03T05:26:37;92742.47;;;10.01
62930;BMP280;49036;42.782;23.108;2022-11-03T05:29:10;92731.28;;;10.13
62930;BMP280;49036;42.782;23.108;2022-11-03T05:31:40;92833.41;;;10.19
62930;BMP280;49036;42.782;23.108;2022-11-03T05:39:45;93164.63;;;10.29
62930;BMP280;49036;42.782;23.108;2022-11-03T05:42:27;93149.66;;;10.34
62930;BMP280;49036;42.782;23.108;2022-11-03T05:44:54;93070.53;;;10.45
62930;BMP280;49036;42.782;23.108;2022-11-03T05:47:20;92932.47;;;10.57
62930;BMP280;49036;42.782;23.108;2022-11-03T05:49:48;93017.56;;;10.66
62930;BMP280;49036;42.782;23.108;2022-11-03T05:52:19;92960.03;;;10.81
62930;BMP280;49036;42.782;23.108;2022-11-03T05:54:45;93104.91;;;10.91
62930;BMP280;49036;42.782;23.108;2022-11-03T05:57:15;93077.19;;;11.05
62930;BMP280;49036;42.782;23.108;2022-11-03T05:59:43;93201.22;;;11.14
62930;BMP280;49036;42.782;23.108;2022-11-03T06:02:37;93306.47;;;11.21
62930;BMP280;49036;42.782;23.108;2022-11-03T06:05:32;93190.03;;;11.25
62930;BMP280;49036;42.782;23.108;2022-11-03T06:08:23;93163.19;;;11.30
62930;BMP280;49036;42.782;23.108;2022-11-03T06:10:54;93070.00;;;11.41
62930;BMP280;49036;42.782;23.108;2022-11-03T06:13:29;93382.53;;;11.53
62930;BMP280;49036;42.782;23.108;2022-11-03T06:16:00;93329.69;;;11.65
62930;BMP280;49036;42.782;23.108;2022-11-03T06:18:31;93317.81;;;11.76
62930;BMP280;49036;42.782;23.108;2022-11-03T06:21:03;93483.59;;;11.83
62930;BMP280;49036;42.782;23.108;2022-11-03T06:23:30;93454.34;;;11.82
62930;BMP280;49036;42.782;23.108;2022-11-03T06:25:56;93173.56;;;11.82
62930;BMP280;49036;42.782;23.108;2022-11-03T06:28:25;93221.88;;;11.89
62930;BMP280;49036;42.782;23.108;2022-11-03T06:30:54;93086.38;;;11.89
62930;BMP280;49036;42.782;23.108;2022-11-03T06:33:33;93025.19;;;11.89
62930;BMP280;49036;42.782;23.108;2022-11-03T06:36:52;92990.31;;;11.86
62930;BMP280;49036;42.782;23.108;2022-11-03T06:39:01;92807.31;;;11.96
62930;BMP280;49036;42.782;23.108;2022-11-03T06:41:30;92853.84;;;11.96
62930;BMP280;49036;42.782;23.108;2022-11-03T06:43:57;92939.59;;;12.02
62930;BMP280;49036;42.782;23.108;2022-11-03T06:46:26;92754.38;;;12.10
62930;BMP280;49036;42.782;23.108;2022-11-03T06:48:52;92818.59;;;12.32
62930;BMP280;49036;42.782;23.108;2022-11-03T06:51:20;93252.34;;;12.55
62930;BMP280;49036;42.782;23.108;2022-11-03T06:53:48;93392.34;;;12.85
62930;BMP280;49036;42.782;23.108;2022-11-03T06:56:15;93580.72;;;13.06
62930;BMP280;49036;42.782;23.108;2022-11-03T06:58:42;93581.94;;;13.03
62930;BMP280;49036;42.782;23.108;2022-11-03T07:01:33;93672.75;;;13.08
62930;BMP280;49036;42.782;23.108;2022-11-03T07:04:12;93533.88;;;13.16
62930;BMP280;49036;42.782;23.108;2022-11-03T07:06:39;93579.41;;;13.35
62930;BMP280;49036;42.782;23.108;2022-11-03T07:09:13;93542.78;;;13.40
62930;BMP280;49036;42.782;23.108;2022-11-03T07:11:46;93624.75;;;13.49
62930;BMP280;49036;42.782;23.108;2022-11-03T07:14:23;93490.53;;;13.41
62930;BMP280;49036;42.782;23.108;2022-11-03T07:16:55;93390.31;;;13.29
62930;BMP280;49036;42.782;23.108;2022-11-03T07:22:15;93206.19;;;13.09
62930;BMP280;49036;42.782;23.108;2022-11-03T07:24:44;93194.53;;;13.13
62930;BMP280;49036;42.782;23.108;2022-11-03T07:29:49;93101.69;;;13.08
62930;BMP280;49036;42.782;23.108;2022-11-03T07:32:21;93110.69;;;13.07
62930;BMP280;49036;42.782;23.108;2022-11-03T07:34:51;92910.66;;;13.19
62930;BMP280;49036;42.782;23.108;2022-11-03T07:37:22;92913.38;;;13.35
62930;BMP280;49036;42.782;23.108;2022-11-03T07:39:48;93401.91;;;13.53
62930;BMP280;49036;42.782;23.108;2022-11-03T07:42:23;93198.09;;;13.60
62930;BMP280;49036;42.782;23.108;2022-11-03T07:44:50;93199.94;;;13.72
62930;BMP280;49036;42.782;23.108;2022-11-03T07:47:21;93149.03;;;13.87
62930;BMP280;49036;42.782;23.108;2022-11-03T07:49:50;93346.75;;;13.96
62930;BMP280;49036;42.782;23.108;2022-11-03T07:52:18;93458.78;;;14.20
62930;BMP280;49036;42.782;23.108;2022-11-03T07:54:44;93589.19;;;14.34
62930;BMP280;49036;42.782;23.108;2022-11-03T07:57:17;93778.50;;;14.23
62930;BMP280;49036;42.782;23.108;2022-11-03T07:59:49;93761.63;;;14.49
62930;BMP280;49036;42.782;23.108;2022-11-03T08:04:57;93958.91;;;14.83
62930;BMP280;49036;42.782;23.108;2022-11-03T08:07:23;93718.88;;;14.74
62930;BMP280;49036;42.782;23.108;2022-11-03T08:09:49;93879.41;;;14.86
62930;BMP280;49036;42.782;23.108;2022-11-03T08:12:14;93850.44;;;14.93
62930;BMP280;49036;42.782;23.108;2022-11-03T08:14:40;93947.03;;;14.97
62930;BMP280;49036;42.782;23.108;2022-11-03T08:19:06;94022.28;;;15.06
62930;BMP280;49036;42.782;23.108;2022-11-03T08:21:32;93950.50;;;15.38
62930;BMP280;49036;42.782;23.108;2022-11-03T08:23:57;94052.31;;;15.47
62930;BMP280;49036;42.782;23.108;2022-11-03T08:26:23;94063.19;;;15.41
62930;BMP280;49036;42.782;23.108;2022-11-03T08:28:48;93920.75;;;15.58
62930;BMP280;49036;42.782;23.108;2022-11-03T08:31:14;93745.94;;;15.75
62930;BMP280;49036;42.782;23.108;2022-11-03T08:33:40;93373.81;;;15.57
62930;BMP280;49036;42.782;23.108;2022-11-03T08:36:06;93557.91;;;15.61
62930;BMP280;49036;42.782;23.108;2022-11-03T08:38:32;93613.53;;;15.71
62930;BMP280;49036;42.782;23.108;2022-11-03T08:40:58;93580.56;;;15.85
62930;BMP280;49036;42.782;23.108;2022-11-03T08:43:24;93350.16;;;15.78
62930;BMP280;49036;42.782;23.108;2022-11-03T08:45:49;92871.00;;;15.76
62930;BMP280;49036;42.782;23.108;2022-11-03T08:48:21;93023.81;;;15.87
62930;BMP280;49036;42.782;23.108;2022-11-03T08:50:47;93578.50;;;16.03
62930;BMP280;49036;42.782;23.108;2022-11-03T08:53:15;93671.31;;;16.13
62930;BMP280;49036;42.782;23.108;2022-11-03T08:55:41;93623.59;;;16.27
62930;BMP280;49036;42.782;23.108;2022-11-03T08:58:07;93668.97;;;16.41
62930;BMP280;49036;42.782;23.108;2022-11-03T09:00:33;93914.00;;;16.56
62930;BMP280;49036;42.782;23.108;2022-11-03T09:02:59;93777.66;;;16.45
62930;BMP280;49036;42.782;23.108;2022-11-03T09:07:26;93467.88;;;16.57
62930;BMP280;49036;42.782;23.108;2022-11-03T09:09:52;93711.50;;;16.71
62930;BMP280;49036;42.782;23.108;2022-11-03T09:12:17;93858.44;;;16.99
62930;BMP280;49036;42.782;23.108;2022-11-03T09:16:55;93926.50;;;17.35
62930;BMP280;49036;42.782;23.108;2022-11-03T09:19:20;93730.34;;;17.42
62930;BMP280;49036;42.782;23.108;2022-11-03T09:21:46;92766.47;;;17.58
62930;BMP280;49036;42.782;23.108;2022-11-03T09:24:11;93615.38;;;17.63
62930;BMP280;49036;42.782;23.108;2022-11-03T09:26:37;93380.47;;;17.66
62930;BMP280;49036;42.782;23.108;2022-11-03T09:29:03;93285.75;;;17.66
62930;BMP280;49036;42.782;23.108;2022-11-03T09:31:28;93185.81;;;17.81
62930;BMP280;49036;42.782;23.108;2022-11-03T09:33:54;93211.22;;;17.85
62930;BMP280;49036;42.782;23.108;2022-11-03T09:36:20;93199.66;;;17.99
62930;BMP280;49036;42.782;23.108;2022-11-03T09:38:45;93206.56;;;18.22
62930;BMP280;49036;42.782;23.108;2022-11-03T09:41:11;93557.28;;;18.55
62930;BMP280;49036;42.782;23.108;2022-11-03T09:43:45;93385.19;;;18.57
62930;BMP280;49036;42.782;23.108;2022-11-03T09:46:12;93060.13;;;18.35
62930;BMP280;49036;42.782;23.108;2022-11-03T09:48:39;93003.13;;;18.29
62930;BMP280;49036;42.782;23.108;2022-11-03T09:51:05;92915.25;;;18.24
62930;BMP280;49036;42.782;23.108;2022-11-03T09:53:33;92660.47;;;18.31
62930;BMP280;49036;42.782;23.108;2022-11-03T09:55:59;92732.84;;;18.32
62930;BMP280;49036;42.782;23.108;2022-11-03T09:58:24;92695.84;;;18.44
62930;BMP280;49036;42.782;23.108;2022-11-03T10:00:50;92629.19;;;18.49
62930;BMP280;49036;42.782;23.108;2022-11-03T10:03:16;92579.13;;;18.37
62930;BMP280;49036;42.782;23.108;2022-11-03T10:05:43;92563.25;;;18.54
62930;BMP280;49036;42.782;23.108;2022-11-03T10:08:36;92659.59;;;18.62
62930;BMP280;49036;42.782;23.108;2022-11-03T10:11:05;92500.84;;;18.63
62930;BMP280;49036;42.782;23.108;2022-11-03T10:13:38;92561.69;;;18.42
62930;BMP280;49036;42.782;23.108;2022-11-03T10:16:07;92575.88;;;18.53
62930;BMP280;49036;42.782;23.108;2022-11-03T10:18:34;92471.41;;;18.68
62930;BMP280;49036;42.782;23.108;2022-11-03T10:22:01;92837.22;;;18.97
62930;BMP280;49036;42.782;23.108;2022-11-03T10:24:26;92575.03;;;18.94
62930;BMP280;49036;42.782;23.108;2022-11-03T10:26:53;92729.75;;;19.02
62930;BMP280;49036;42.782;23.108;2022-11-03T10:29:25;92788.56;;;19.32
62930;BMP280;49036;42.782;23.108;2022-11-03T10:31:55;92824.72;;;19.50
62930;BMP280;49036;42.782;23.108;2022-11-03T10:34:35;92830.78;;;19.32
62930;BMP280;49036;42.782;23.108;2022-11-03T10:37:22;92474.16;;;19.27
62930;BMP280;49036;42.782;23.108;2022-11-03T10:39:50;92536.31;;;19.55
62930;BMP280;49036;42.782;23.108;2022-11-03T10:42:25;92572.75;;;19.41
62930;BMP280;49036;42.782;23.108;2022-11-03T10:44:53;92401.47;;;19.83
62930;BMP280;49036;42.782;23.108;2022-11-03T10:47:31;92864.16;;;20.04
62930;BMP280;49036;42.782;23.108;2022-11-03T10:49:57;92840.22;;;20.05
62930;BMP280;49036;42.782;23.108;2022-11-03T10:52:25;92742.03;;;20.42
62930;BMP280;49036;42.782;23.108;2022-11-03T10:54:52;92356.00;;;20.46
62930;BMP280;49036;42.782;23.108;2022-11-03T10:57:20;92240.47;;;20.50
62930;BMP280;49036;42.782;23.108;2022-11-03T10:59:48;91848.69;;;20.68
62930;BMP280;49036;42.782;23.108;2022-11-03T11:02:25;93227.78;;;21.07
62930;BMP280;49036;42.782;23.108;2022-11-03T11:04:59;93233.50;;;21.11
62930;BMP280;49036;42.782;23.108;2022-11-03T11:07:32;93964.53;;;21.73
62930;BMP280;49036;42.782;23.108;2022-11-03T11:10:26;94141.84;;;22.00
62930;BMP280;49036;42.782;23.108;2022-11-03T11:13:23;93999.44;;;21.85
62930;BMP280;49036;42.782;23.108;2022-11-03T11:15:57;94184.84;;;21.96
62930;BMP280;49036;42.782;23.108;2022-11-03T11:20:52;94262.69;;;22.55
62930;BMP280;49036;42.782;23.108;2022-11-03T11:32:59;94340.88;;;22.98
62930;BMP280;49036;42.782;23.108;2022-11-03T11:37:51;94344.91;;;23.49
62930;BMP280;49036;42.782;23.108;2022-11-03T11:51:24;94305.63;;;21.46
62930;BMP280;49036;42.782;23.108;2022-11-03T11:53:50;94295.25;;;21.53
62930;BMP280;49036;42.782;23.108;2022-11-03T11:56:16;94288.00;;;21.24
62930;BMP280;49036;42.782;23.108;2022-11-03T12:00:34;94282.88;;;20.94
62930;BMP280;49036;42.782;23.108;2022-11-03T12:03:01;94181.16;;;20.69
62930;BMP280;49036;42.782;23.108;2022-11-03T12:05:34;94219.03;;;20.40
62930;BMP280;49036;42.782;23.108;2022-11-03T12:08:00;94188.53;;;20.34
62930;BMP280;49036;42.782;23.108;2022-11-03T12:10:28;94152.25;;;20.25
62930;BMP280;49036;42.782;23.108;2022-11-03T12:12:55;94145.91;;;20.46
62930;BMP280;49036;42.782;23.108;2022-11-03T12:18:42;94143.59;;;20.62
62930;BMP280;49036;42.782;23.108;2022-11-03T12:21:12;94167.97;;;20.75
62930;BMP280;49036;42.782;23.108;2022-11-03T12:23:45;94163.25;;;20.82
62930;BMP280;49036;42.782;23.108;2022-11-03T12:30:59;94159.50;;;20.97
62930;BMP280;49036;42.782;23.108;2022-11-03T12:33:26;94184.22;;;20.99
62930;BMP280;49036;42.782;23.108;2022-11-03T12:35:52;94163.56;;;20.92
62930;BMP280;49036;42.782;23.108;2022-11-03T12:38:18;94156.34;;;20.87
62930;BMP280;49036;42.782;23.108;2022-11-03T12:40:43;94137.06;;;20.79
62930;BMP280;49036;42.782;23.108;2022-11-03T12:43:09;94115.09;;;20.30
62930;BMP280;49036;42.782;23.108;2022-11-03T12:45:34;94060.47;;;20.19
62930;BMP280;49036;42.782;23.108;2022-11-03T12:48:00;93963.59;;;20.31
62930;BMP280;49036;42.782;23.108;2022-11-03T12:50:25;93920.84;;;20.38
62930;BMP280;49036;42.782;23.108;2022-11-03T12:52:51;94116.88;;;20.41
62930;BMP280;49036;42.782;23.108;2022-11-03T12:55:17;94105.53;;;20.63
62930;BMP280;49036;42.782;23.108;2022-11-03T12:57:42;94130.03;;;20.80
62930;BMP280;49036;42.782;23.108;2022-11-03T13:00:10;94132.38;;;20.88
62930;BMP280;49036;42.782;23.108;2022-11-03T13:02:37;94108.06;;;20.77
62930;BMP280;49036;42.782;23.108;2022-11-03T13:05:03;94102.91;;;20.93
62930;BMP280;49036;42.782;23.108;2022-11-03T13:07:29;94099.47;;;20.96
62930;BMP280;49036;42.782;23.108;2022-11-03T13:09:55;94104.97;;;20.90
62930;BMP280;49036;42.782;23.108;2022-11-03T13:12:20;94091.75;;;20.73
62930;BMP280;49036;42.782;23.108;2022-11-03T13:14:59;94063.72;;;20.55
62930;BMP280;49036;42.782;23.108;2022-11-03T13:17:25;94078.00;;;20.62
62930;BMP280;49036;42.782;23.108;2022-11-03T13:19:51;94088.81;;;20.69
62930;BMP280;49036;42.782;23.108;2022-11-03T13:22:17;94082.41;;;20.67
62930;BMP280;49036;42.782;23.108;2022-11-03T13:25:19;94062.66;;;20.67
62930;BMP280;49036;42.782;23.108;2022-11-03T13:27:45;94053.88;;;20.80
62930;BMP280;49036;42.782;23.108;2022-11-03T13:30:11;94043.84;;;20.75
62930;BMP280;49036;42.782;23.108;2022-11-03T13:32:36;94074.59;;;20.65
62930;BMP280;49036;42.782;23.108;2022-11-03T13:35:03;94056.69;;;20.56
62930;BMP280;49036;42.782;23.108;2022-11-03T13:37:29;94026.81;;;20.71
62930;BMP280;49036;42.782;23.108;2022-11-03T13:39:54;94037.94;;;20.65
62930;BMP280;49036;42.782;23.108;2022-11-03T13:42:20;94023.84;;;20.65
62930;BMP280;49036;42.782;23.108;2022-11-03T13:44:45;94080.97;;;20.66
62930;BMP280;49036;42.782;23.108;2022-11-03T13:47:11;94070.66;;;20.76
62930;BMP280;49036;42.782;23.108;2022-11-03T13:49:37;94011.03;;;20.86
62930;BMP280;49036;42.782;23.108;2022-11-03T13:52:03;94050.66;;;20.66
62930;BMP280;49036;42.782;23.108;2022-11-03T13:54:28;94042.72;;;20.37
62930;BMP280;49036;42.782;23.108;2022-11-03T13:56:54;94074.91;;;20.30
62930;BMP280;49036;42.782;23.108;2022-11-03T13:59:19;94086.66;;;20.22
62930;BMP280;49036;42.782;23.108;2022-11-03T14:03:24;94039.22;;;20.14
62930;BMP280;49036;42.782;23.108;2022-11-03T14:05:49;94058.03;;;20.08
62930;BMP280;49036;42.782;23.108;2022-11-03T14:08:44;94066.84;;;19.98
62930;BMP280;49036;42.782;23.108;2022-11-03T14:11:09;94038.38;;;19.88
62930;BMP280;49036;42.782;23.108;2022-11-03T14:13:53;93953.88;;;19.66
62930;BMP280;49036;42.782;23.108;2022-11-03T14:16:18;93939.06;;;19.44
62930;BMP280;49036;42.782;23.108;2022-11-03T14:18:44;93590.50;;;19.34
62930;BMP280;49036;42.782;23.108;2022-11-03T14:21:09;93217.75;;;19.05
62930;BMP280;49036;42.782;23.108;2022-11-03T14:23:35;92712.88;;;19.00
62930;BMP280;49036;42.782;23.108;2022-11-03T14:26:00;91547.03;;;18.81
62930;BMP280;49036;42.782;23.108;2022-11-03T14:28:26;89397.00;;;18.82
62930;BMP280;49036;42.782;23.108;2022-11-03T14:30:51;89335.31;;;19.15
62930;BMP280;49036;42.782;23.108;2022-11-03T14:33:17;89686.88;;;19.03
62930;BMP280;49036;42.782;23.108;2022-11-03T14:35:43;89427.66;;;18.69
62930;BMP280;49036;42.782;23.108;2022-11-03T14:38:09;88532.91;;;18.44
62930;BMP280;49036;42.782;23.108;2022-11-03T14:40:34;87955.94;;;18.30
62930;BMP280;49036;42.782;23.108;2022-11-03T14:43:26;80416.56;;;18.05
62930;BMP280;49036;42.782;23.108;2022-11-03T14:45:52;84214.31;;;17.96
62930;BMP280;49036;42.782;23.108;2022-11-03T14:48:18;82384.31;;;17.64
62930;BMP280;49036;42.782;23.108;2022-11-03T14:50:43;77163.69;;;17.15
62930;BMP280;49036;42.782;23.108;2022-11-03T14:53:08;76315.84;;;16.58
62930;BMP280;49036;42.782;23.108;2022-11-03T14:55:34;71967.75;;;16.04
62930;BMP280;49036;42.782;23.108;2022-11-03T14:58:00;77578.69;;;15.60
62930;BMP280;49036;42.782;23.108;2022-11-03T15:00:26;77077.81;;;15.23
62930;BMP280;49036;42.782;23.108;2022-11-03T15:02:51;70803.88;;;14.92
62930;BMP280;49036;42.782;23.108;2022-11-03T15:05:16;67510.88;;;14.32
62930;BMP280;49036;42.782;23.108;2022-11-03T15:09:52;72734.25;;;13.95
62930;BMP280;49036;42.782;23.108;2022-11-03T15:12:18;76042.72;;;13.73
62930;BMP280;49036;42.782;23.108;2022-11-03T15:14:43;79432.66;;;13.52
62930;BMP280;49036;42.782;23.108;2022-11-03T15:17:09;78758.66;;;13.34
62930;BMP280;49036;42.782;23.108;2022-11-03T15:19:34;80907.09;;;13.23
62930;BMP280;49036;42.782;23.108;2022-11-03T15:22:00;83197.94;;;13.13
62930;BMP280;49036;42.782;23.108;2022-11-03T15:24:25;83390.91;;;13.25
62930;BMP280;49036;42.782;23.108;2022-11-03T15:26:51;83533.91;;;13.44